SGAS/ASU METAR and TAF weather

Enter ICAO airport designator
Station Type Date Time Source
SGAS METAR 2017/12/15 10:00 UTC NOAA

SGAS 151000Z 05003KT CAVOK 26/22 Q1010


Station Type Date Time Source
SGAS Decoded METAR 2017/12/15 10:00 UTC NOAA

Asuncion / Aeropuerto, Paraguay (SGAS) 25-16S 057-38W 101M
Dec 15, 2017 - 05:00 AM EST / 2017.12.15 1000 UTC
Wind: from the NE (050 degrees) at 3 MPH (3 KT):0
Visibility: greater than 7 mile(s):0
Temperature: 78 F (26 C)
Dew Point: 71 F (22 C)
Relative Humidity: 78%
Pressure (altimeter): 29.83 in. Hg (1010 hPa)
ob: SGAS 151000Z 05003KT CAVOK 26/22 Q1010
cycle: 10

Station Type Date Time Source
SGAS TAF 2017/12/15 12:59 UTC NOAA

TAF SGAS 151000Z 1512/1612 04008KT CAVOK TX37/1519Z TN25/1510Z
BECMG 1514/1517 05007KT 9999 SCT033 FEW040TCU PROB40 1519/1521 8000 SHRA BKN024 FEW040TCU
BECMG 1600/1603 VRB04KT 9999 FEW033
BECMG 1605/1608 09004KT 8000 NSC


Example: see airport list